createdAt,value
2023-05-11T00:01:39.369Z,93761.88
2023-05-11T00:04:07.545Z,93763.94
2023-05-11T00:06:35.812Z,93761.59
2023-05-11T00:09:03.841Z,93772.03
2023-05-11T00:11:34.008Z,93768.56
2023-05-11T00:14:02.295Z,93769.56
2023-05-11T00:16:30.246Z,93772.94
2023-05-11T00:19:32.659Z,93773.09
2023-05-11T00:22:01.614Z,93766.16
2023-05-11T00:24:29.860Z,93763.38
2023-05-11T00:26:57.865Z,93778.75
2023-05-11T00:29:25.840Z,93776.56
2023-05-11T00:31:53.803Z,93773.75
2023-05-11T00:34:21.780Z,93777.38
2023-05-11T00:36:49.820Z,93777.38
2023-05-11T00:39:18.526Z,93774.09
2023-05-11T00:41:46.453Z,93774.41
2023-05-11T00:44:14.339Z,93772.25
2023-05-11T00:46:43.384Z,93769.97
2023-05-11T00:49:12.118Z,93777.91
2023-05-11T00:51:41.608Z,93781.81
2023-05-11T00:54:15.564Z,93777.34
2023-05-11T00:56:43.530Z,93779.31
2023-05-11T00:59:11.643Z,93782.56
2023-05-11T01:01:39.522Z,93780.72
2023-05-11T01:04:08.143Z,93786.84
2023-05-11T01:06:52.209Z,93781.41
2023-05-11T01:09:59.391Z,93778.63
2023-05-11T01:12:53.467Z,93779.63
2023-05-11T01:15:30.237Z,93776.03
2023-05-11T01:18:14.702Z,93777.84
2023-05-11T01:20:46.559Z,93778.94
2023-05-11T01:23:26.344Z,93784.47
2023-05-11T01:26:31.739Z,93783.53
2023-05-11T01:29:17.334Z,93780.41
2023-05-11T01:31:48.569Z,93779.34
2023-05-11T01:34:21.743Z,93789.75
2023-05-11T01:37:01.065Z,93787.06
2023-05-11T01:39:35.050Z,93790.06
2023-05-11T01:42:11.525Z,93787.84
2023-05-11T01:44:44.698Z,93783.19
2023-05-11T01:47:15.111Z,93779.88
2023-05-11T01:49:44.854Z,93777.00
2023-05-11T01:52:18.285Z,93785.91
2023-05-11T01:54:48.941Z,93785.78
2023-05-11T01:57:18.336Z,93783.81
2023-05-11T01:59:49.300Z,93787.41
2023-05-11T02:02:20.095Z,93784.31
2023-05-11T02:04:48.970Z,93771.91
2023-05-11T02:07:18.832Z,93779.44
2023-05-11T02:09:48.542Z,93777.00
2023-05-11T02:12:20.067Z,93778.06
2023-05-11T02:14:50.563Z,93776.22
2023-05-11T02:17:22.303Z,93777.38
2023-05-11T02:19:51.805Z,93772.53
2023-05-11T02:22:21.272Z,93779.56
2023-05-11T02:24:50.171Z,93773.22
2023-05-11T02:27:18.127Z,93777.47
2023-05-11T02:29:46.762Z,93770.06
2023-05-11T02:32:18.414Z,93765.94
2023-05-11T02:34:54.661Z,93766.16
2023-05-11T02:37:25.848Z,93770.91
2023-05-11T02:40:06.974Z,93774.16
2023-05-11T02:42:38.730Z,93766.81
2023-05-11T02:45:09.197Z,93771.09
2023-05-11T02:47:42.797Z,93766.94
2023-05-11T02:50:12.897Z,93770.53
2023-05-11T02:54:39.433Z,93771.53
2023-05-11T02:57:07.648Z,93766.22
2023-05-11T02:59:37.147Z,93771.09
2023-05-11T03:02:05.456Z,93760.59
2023-05-11T03:04:34.553Z,93752.84
2023-05-11T03:07:02.502Z,93760.34
2023-05-11T03:09:30.884Z,93758.16
2023-05-11T03:11:59.742Z,93762.06
2023-05-11T03:14:28.719Z,93758.72
2023-05-11T03:16:59.628Z,93755.50
2023-05-11T03:19:29.202Z,93742.31
2023-05-11T03:21:59.112Z,93760.56
2023-05-11T03:24:27.578Z,93754.09
2023-05-11T03:26:56.877Z,93757.03
2023-05-11T03:29:29.196Z,93759.09
2023-05-11T03:31:57.246Z,93762.34
2023-05-11T03:34:26.158Z,93761.75
2023-05-11T03:36:55.223Z,93759.66
2023-05-11T03:39:24.502Z,93759.78
2023-05-11T03:41:53.704Z,93762.66
2023-05-11T03:44:24.216Z,93764.38
2023-05-11T03:46:55.076Z,93761.84
2023-05-11T03:49:24.588Z,93763.69
2023-05-11T03:51:53.607Z,93761.56
2023-05-11T03:54:22.025Z,93767.34
2023-05-11T03:56:51.959Z,93767.63
2023-05-11T03:59:21.321Z,93768.78
2023-05-11T04:01:53.311Z,93766.81
2023-05-11T04:04:21.635Z,93771.97
2023-05-11T04:06:49.853Z,93786.03
2023-05-11T04:09:21.055Z,93774.25
2023-05-11T04:11:48.945Z,93777.00
2023-05-11T04:14:20.995Z,93776.81
2023-05-11T04:16:49.150Z,93778.84
2023-05-11T04:19:17.138Z,93780.38
2023-05-11T04:21:45.150Z,93786.94
2023-05-11T04:24:13.144Z,93791.19
2023-05-11T04:26:41.011Z,93799.63
2023-05-11T04:29:11.036Z,93793.84
2023-05-11T04:31:39.079Z,93788.84
2023-05-11T04:34:08.626Z,93792.47
2023-05-11T04:36:37.957Z,93792.69
2023-05-11T04:39:07.754Z,93794.31
2023-05-11T04:41:38.494Z,93806.38
2023-05-11T04:44:07.174Z,93790.19
2023-05-11T04:46:35.841Z,93795.47
2023-05-11T04:49:04.477Z,93800.91
2023-05-11T04:51:36.898Z,93799.25
2023-05-11T04:54:05.167Z,93785.47
2023-05-11T04:56:33.180Z,93794.09
2023-05-11T04:59:02.474Z,93788.56
2023-05-11T05:01:32.417Z,93801.81
2023-05-11T05:04:00.586Z,93799.91
2023-05-11T05:06:28.593Z,93800.22
2023-05-11T05:08:58.084Z,93801.97
2023-05-11T05:11:26.582Z,93802.69
2023-05-11T05:13:55.179Z,93819.19
2023-05-11T05:16:23.490Z,93808.31
2023-05-11T05:18:51.458Z,93810.22
2023-05-11T05:21:19.527Z,93804.81
2023-05-11T05:23:47.448Z,93811.75
2023-05-11T05:26:15.916Z,93817.22
2023-05-11T05:28:44.726Z,93817.56
2023-05-11T05:31:13.127Z,93817.03
2023-05-11T05:33:42.191Z,93823.97
2023-05-11T05:36:10.146Z,93822.50
2023-05-11T05:38:38.372Z,93811.91
2023-05-11T05:41:07.169Z,93814.47
2023-05-11T05:43:39.121Z,93820.22
2023-05-11T05:46:07.179Z,93820.78
2023-05-11T05:48:35.318Z,93828.09
2023-05-11T05:51:03.481Z,93824.13
2023-05-11T05:53:31.473Z,93817.88
2023-05-11T05:55:59.502Z,93814.94
2023-05-11T05:58:27.654Z,93826.25
2023-05-11T06:00:56.612Z,93827.78
2023-05-11T06:03:26.419Z,93827.22
2023-05-11T06:05:57.877Z,93838.16
2023-05-11T06:08:26.181Z,93839.94
2023-05-11T06:10:54.211Z,93837.88
2023-05-11T06:13:22.215Z,93844.13
2023-05-11T06:15:50.529Z,93829.31
2023-05-11T06:18:36.747Z,93845.81
2023-05-11T06:21:07.588Z,93854.94
2023-05-11T06:23:36.476Z,93844.94
2023-05-11T06:26:04.644Z,93847.19
2023-05-11T06:28:34.029Z,93844.91
2023-05-11T06:31:05.814Z,93854.41
2023-05-11T06:33:36.744Z,93840.97
2023-05-11T06:36:09.472Z,93845.31
2023-05-11T06:38:37.646Z,93862.41
2023-05-11T06:41:06.519Z,93856.09
2023-05-11T06:43:34.691Z,93856.09
2023-05-11T06:46:04.627Z,93847.31
2023-05-11T06:48:33.593Z,93848.34
2023-05-11T06:51:01.801Z,93851.78
2023-05-11T06:53:29.788Z,93856.34
2023-05-11T06:55:59.274Z,93855.06
2023-05-11T06:58:27.448Z,93844.91
2023-05-11T07:00:55.613Z,93853.69
2023-05-11T07:03:24.095Z,93842.34
2023-05-11T07:05:52.184Z,93834.69
2023-05-11T07:08:20.601Z,93830.53
2023-05-11T07:10:48.665Z,93842.50
2023-05-11T07:13:16.496Z,93838.47
2023-05-11T07:15:44.458Z,93840.31
2023-05-11T07:18:12.518Z,93846.78
2023-05-11T07:20:41.216Z,93845.88
2023-05-11T07:23:11.217Z,93844.59
2023-05-11T07:25:39.224Z,93850.25
2023-05-11T07:28:07.159Z,93853.94
2023-05-11T07:30:35.634Z,93856.38
2023-05-11T07:33:04.274Z,93847.19
2023-05-11T07:35:32.924Z,93848.41
2023-05-11T07:38:00.937Z,93850.59
2023-05-11T07:40:29.422Z,93851.09
2023-05-11T07:42:57.331Z,93850.53
2023-05-11T07:45:25.320Z,93853.34
2023-05-11T07:47:53.812Z,93854.06
2023-05-11T07:50:24.472Z,93857.41
2023-05-11T07:52:53.104Z,93858.78
2023-05-11T07:55:25.186Z,93857.44
2023-05-11T07:57:55.953Z,93856.63
2023-05-11T08:00:24.194Z,93855.13
2023-05-11T08:02:53.261Z,93861.91
2023-05-11T08:05:21.951Z,93862.34
2023-05-11T08:07:49.979Z,93873.16
2023-05-11T08:10:18.157Z,93873.97
2023-05-11T08:12:46.038Z,93880.00
2023-05-11T08:15:13.947Z,93875.69
2023-05-11T08:17:43.511Z,93869.72
2023-05-11T08:20:11.843Z,93877.84
2023-05-11T08:22:40.056Z,93878.56
2023-05-11T08:25:08.528Z,93866.94
2023-05-11T08:27:36.665Z,93865.00
2023-05-11T08:30:05.048Z,93870.56
2023-05-11T08:32:50.162Z,93879.50
2023-05-11T08:35:24.746Z,93884.47
2023-05-11T08:37:52.671Z,93872.25
2023-05-11T08:40:21.916Z,93870.22
2023-05-11T08:42:54.426Z,93879.50
2023-05-11T08:45:23.321Z,93865.91
2023-05-11T08:47:53.138Z,93874.84
2023-05-11T08:50:22.574Z,93876.31
2023-05-11T08:52:50.604Z,93875.78
2023-05-11T08:55:18.879Z,93871.84
2023-05-11T08:57:47.450Z,93871.75
2023-05-11T09:00:16.901Z,93872.31
2023-05-11T09:02:45.803Z,93872.06
2023-05-11T09:05:15.065Z,93863.66
2023-05-11T09:07:44.344Z,93868.66
2023-05-11T09:10:14.001Z,93866.69
2023-05-11T09:12:42.493Z,93867.56
2023-05-11T09:15:11.137Z,93868.00
2023-05-11T09:17:39.201Z,93871.38
2023-05-11T09:20:09.664Z,93855.59
2023-05-11T09:22:47.454Z,93856.59
2023-05-11T09:25:17.997Z,93868.56
2023-05-11T09:27:47.997Z,93862.19
2023-05-11T09:30:23.706Z,93849.47
2023-05-11T09:33:04.680Z,93869.41
2023-05-11T09:35:34.959Z,93875.13
2023-05-11T09:38:10.643Z,93872.34
2023-05-11T09:40:50.723Z,93858.53
2023-05-11T09:43:21.706Z,93861.41
2023-05-11T09:45:52.344Z,93860.53
2023-05-11T09:48:20.529Z,93864.56
2023-05-11T09:50:50.026Z,93856.91
2023-05-11T09:53:18.676Z,93855.06
2023-05-11T09:55:55.578Z,93849.72
2023-05-11T09:58:24.187Z,93840.88
2023-05-11T10:00:53.916Z,93846.91
2023-05-11T10:03:22.326Z,93843.31
2023-05-11T10:06:01.009Z,93841.03
2023-05-11T10:08:30.733Z,93833.19
2023-05-11T10:10:58.837Z,93845.88
2023-05-11T10:13:27.357Z,93847.53
2023-05-11T10:15:56.565Z,93841.28
2023-05-11T10:18:24.727Z,93830.75
2023-05-11T10:20:53.858Z,93838.28
2023-05-11T10:23:22.518Z,93830.31
2023-05-11T10:25:51.872Z,93824.31
2023-05-11T10:28:21.296Z,93819.59
2023-05-11T10:30:49.884Z,93824.72
2023-05-11T10:33:18.531Z,93819.53
2023-05-11T10:35:46.741Z,93823.00
2023-05-11T10:38:16.547Z,93826.81
2023-05-11T10:40:46.449Z,93824.81
2023-05-11T10:43:53.676Z,93819.59
2023-05-11T10:46:41.425Z,93815.25
2023-05-11T10:49:35.524Z,93823.13
2023-05-11T10:52:21.304Z,93815.25
2023-05-11T10:55:40.014Z,93810.97
2023-05-11T10:58:13.571Z,93809.22
2023-05-11T11:01:18.195Z,93802.75
2023-05-11T11:04:13.174Z,93809.00
2023-05-11T11:06:43.447Z,93796.97
2023-05-11T11:09:16.481Z,93817.19
2023-05-11T11:11:47.360Z,93808.97
2023-05-11T11:14:16.934Z,93820.28
2023-05-11T11:17:17.407Z,93821.00
2023-05-11T11:19:46.336Z,93810.00
2023-05-11T11:22:41.895Z,93822.03
2023-05-11T11:25:14.251Z,93821.91
2023-05-11T11:27:42.297Z,93818.09
2023-05-11T11:30:24.689Z,93814.81
2023-05-11T11:32:55.104Z,93818.44
2023-05-11T11:35:44.989Z,93818.97
2023-05-11T11:38:20.810Z,93821.75
2023-05-11T11:40:53.111Z,93817.03
2023-05-11T11:43:23.772Z,93813.66
2023-05-11T11:45:56.128Z,93806.44
2023-05-11T11:48:41.681Z,93821.47
2023-05-11T11:51:12.496Z,93821.81
2023-05-11T11:53:44.714Z,93826.78
2023-05-11T11:56:15.651Z,93814.66
2023-05-11T11:58:43.607Z,93818.13
2023-05-11T12:01:23.710Z,93798.00
2023-05-11T12:04:17.458Z,93803.28
2023-05-11T12:06:51.055Z,93795.75
2023-05-11T12:09:19.682Z,93803.81
2023-05-11T12:11:48.581Z,93810.41
2023-05-11T12:14:17.332Z,93804.09
2023-05-11T12:17:13.606Z,93804.56
2023-05-11T12:19:45.879Z,93799.81
2023-05-11T12:22:15.681Z,93785.94
2023-05-11T12:24:44.061Z,93785.19
2023-05-11T12:27:12.412Z,93798.41
2023-05-11T12:29:41.645Z,93782.06
2023-05-11T12:32:12.956Z,93784.91
2023-05-11T12:34:41.202Z,93760.44
2023-05-11T12:37:09.342Z,93757.25
2023-05-11T12:39:38.043Z,93767.97
2023-05-11T12:42:06.485Z,93764.72
2023-05-11T12:44:34.523Z,93764.63
2023-05-11T12:47:02.776Z,93762.44
2023-05-11T12:49:31.427Z,93758.59
2023-05-11T12:51:59.574Z,93759.22
2023-05-11T12:54:50.622Z,93751.72
2023-05-11T12:57:29.792Z,93743.25
2023-05-11T13:00:18.090Z,93740.00
2023-05-11T13:02:53.041Z,93732.72
2023-05-11T13:05:28.340Z,93729.91
2023-05-11T13:07:59.756Z,93738.47
2023-05-11T13:10:28.122Z,93721.22
2023-05-11T13:12:56.572Z,93735.25
2023-05-11T13:15:25.696Z,93733.13
2023-05-11T13:18:00.352Z,93731.47
2023-05-11T13:20:30.793Z,93729.25
2023-05-11T13:23:14.042Z,93727.84
2023-05-11T13:25:51.844Z,93727.09
2023-05-11T13:28:22.224Z,93747.19
2023-05-11T13:30:53.946Z,93740.50
2023-05-11T13:33:22.284Z,93746.75
2023-05-11T13:35:50.347Z,93741.69
2023-05-11T13:38:18.213Z,93736.63
2023-05-11T13:40:46.793Z,93738.56
2023-05-11T13:43:14.712Z,93742.59
2023-05-11T13:45:43.049Z,93734.63
2023-05-11T13:48:11.332Z,93731.50
2023-05-11T13:50:39.983Z,93732.47
2023-05-11T13:53:07.838Z,93736.63
2023-05-11T13:55:38.388Z,93717.84
2023-05-11T13:58:06.646Z,93717.06
2023-05-11T14:00:35.386Z,93721.72
2023-05-11T14:03:04.300Z,93720.41
2023-05-11T14:05:32.642Z,93716.75
2023-05-11T14:08:01.206Z,93723.28
2023-05-11T14:10:29.950Z,93726.22
2023-05-11T14:12:58.618Z,93722.44
2023-05-11T14:15:26.544Z,93719.47
2023-05-11T14:17:55.297Z,93723.31
2023-05-11T14:20:23.884Z,93718.50
2023-05-11T14:22:52.648Z,93735.56
2023-05-11T14:25:21.467Z,93725.59
2023-05-11T14:27:54.903Z,93737.47
2023-05-11T14:30:23.677Z,93737.63
2023-05-11T14:33:03.343Z,93731.31
2023-05-11T14:35:31.679Z,93721.34
2023-05-11T14:38:01.260Z,93724.00
2023-05-11T14:40:29.346Z,93734.78
2023-05-11T14:42:57.461Z,93734.91
2023-05-11T14:45:25.387Z,93733.94
2023-05-11T14:47:53.397Z,93730.84
2023-05-11T14:50:21.834Z,93730.47
2023-05-11T14:52:50.122Z,93738.31
2023-05-11T14:55:18.725Z,93735.38
2023-05-11T14:57:46.873Z,93738.63
2023-05-11T15:00:16.060Z,93738.00
2023-05-11T15:02:44.500Z,93739.22
2023-05-11T15:05:13.087Z,93735.81
2023-05-11T15:07:41.568Z,93694.78
2023-05-11T15:10:09.961Z,93733.53
2023-05-11T15:12:38.590Z,93723.81
2023-05-11T15:15:08.451Z,93734.50
2023-05-11T15:17:36.994Z,93723.88
2023-05-11T15:20:06.846Z,93721.44
2023-05-11T15:22:35.218Z,93734.31
2023-05-11T15:25:04.380Z,93734.84
2023-05-11T15:27:33.385Z,93729.81
2023-05-11T15:30:05.292Z,93725.84
2023-05-11T15:32:35.078Z,93724.88
2023-05-11T15:35:03.368Z,93727.28
2023-05-11T15:37:32.246Z,93730.19
2023-05-11T15:40:00.372Z,93728.19
2023-05-11T15:42:28.757Z,93720.84
2023-05-11T15:44:57.556Z,93726.22
2023-05-11T15:47:26.050Z,93730.56
2023-05-11T15:49:55.115Z,93717.56
2023-05-11T15:52:23.816Z,93728.19
2023-05-11T15:54:52.589Z,93728.47
2023-05-11T15:57:20.992Z,93724.81
2023-05-11T15:59:49.749Z,93734.22
2023-05-11T16:02:18.240Z,93728.13
2023-05-11T16:04:47.008Z,93725.25
2023-05-11T16:07:15.787Z,93718.13
2023-05-11T16:09:44.303Z,93723.50
2023-05-11T16:12:12.811Z,93719.91
2023-05-11T16:14:41.238Z,93715.19
2023-05-11T16:17:10.368Z,93713.97
2023-05-11T16:19:38.737Z,93711.66
2023-05-11T16:22:07.813Z,93715.63
2023-05-11T16:24:36.483Z,93718.78
2023-05-11T16:27:05.566Z,93726.69
2023-05-11T16:29:34.164Z,93724.56
2023-05-11T16:32:02.987Z,93732.38
2023-05-11T16:34:31.582Z,93731.81
2023-05-11T16:37:00.040Z,93729.91
2023-05-11T16:39:28.580Z,93726.50
2023-05-11T16:41:57.023Z,93737.16
2023-05-11T16:44:25.498Z,93734.31
2023-05-11T16:46:54.301Z,93732.06
2023-05-11T16:49:23.904Z,93733.59
2023-05-11T16:51:53.027Z,93740.25
2023-05-11T16:54:21.245Z,93734.50
2023-05-11T16:56:49.856Z,93739.94
2023-05-11T16:59:18.378Z,93738.88
2023-05-11T17:01:46.918Z,93727.56
2023-05-11T17:04:16.251Z,93741.44
2023-05-11T17:06:44.666Z,93736.91
2023-05-11T17:09:14.047Z,93734.06
2023-05-11T17:11:42.672Z,93739.56
2023-05-11T17:14:11.346Z,93736.03
2023-05-11T17:16:39.857Z,93737.59
2023-05-11T17:19:08.738Z,93727.28
2023-05-11T17:21:38.396Z,93724.44
2023-05-11T17:24:08.028Z,93720.59
2023-05-11T17:26:47.246Z,93721.59
2023-05-11T17:29:17.518Z,93724.50
2023-05-11T17:31:49.244Z,93718.72
2023-05-11T17:34:22.342Z,93715.75
2023-05-11T17:36:53.138Z,93723.81
2023-05-11T17:39:21.798Z,93728.84
2023-05-11T17:41:50.409Z,93719.06
2023-05-11T17:44:18.893Z,93722.91
2023-05-11T17:46:47.717Z,93722.50
2023-05-11T17:49:16.423Z,93716.59
2023-05-11T17:51:44.903Z,93720.19
2023-05-11T17:54:13.342Z,93724.31
2023-05-11T17:56:41.887Z,93717.13
2023-05-11T17:59:11.524Z,93723.63
2023-05-11T18:01:40.147Z,93722.88
2023-05-11T18:04:09.096Z,93726.94
2023-05-11T18:06:37.590Z,93722.66
2023-05-11T18:09:06.425Z,93733.09
2023-05-11T18:11:35.439Z,93726.97
2023-05-11T18:14:04.259Z,93728.41
2023-05-11T18:16:33.161Z,93716.00
2023-05-11T18:19:01.772Z,93734.06
2023-05-11T18:21:31.176Z,93736.78
2023-05-11T18:23:59.834Z,93739.50
2023-05-11T18:26:28.364Z,93737.34
2023-05-11T18:28:57.052Z,93741.13
2023-05-11T18:31:26.039Z,93745.34
2023-05-11T18:33:54.881Z,93733.88
2023-05-11T18:36:24.007Z,93730.84
2023-05-11T18:38:52.453Z,93753.13
2023-05-11T18:41:21.255Z,93745.34
2023-05-11T18:43:49.848Z,93752.28
2023-05-11T18:46:18.668Z,93744.69
2023-05-11T18:48:47.008Z,93754.47
2023-05-11T18:51:19.282Z,93746.75
2023-05-11T18:53:47.741Z,93752.47
2023-05-11T18:56:17.740Z,93756.63
2023-05-11T18:58:46.836Z,93721.56
2023-05-11T19:01:16.044Z,93758.69
2023-05-11T19:03:44.895Z,93745.59
2023-05-11T19:06:13.730Z,93757.63
2023-05-11T19:08:42.553Z,93757.63
2023-05-11T19:11:11.133Z,93763.50
2023-05-11T19:13:40.155Z,93760.53
2023-05-11T19:16:08.845Z,93762.94
2023-05-11T19:18:39.183Z,93753.78
2023-05-11T19:21:08.120Z,93758.25
2023-05-11T19:23:36.903Z,93764.13
2023-05-11T19:26:05.618Z,93768.34
2023-05-11T19:28:34.153Z,93770.84
2023-05-11T19:31:04.967Z,93770.78
2023-05-11T19:33:34.110Z,93773.03
2023-05-11T19:36:02.171Z,93768.13
2023-05-11T19:38:30.934Z,93754.88
2023-05-11T19:40:59.891Z,93768.25
2023-05-11T19:43:28.384Z,93770.41
2023-05-11T19:45:56.726Z,93765.09
2023-05-11T19:48:24.823Z,93761.94
2023-05-11T19:50:52.866Z,93773.31
2023-05-11T19:53:20.880Z,93775.66
2023-05-11T19:55:49.077Z,93779.09
2023-05-11T19:58:17.704Z,93769.44
2023-05-11T20:00:46.481Z,93776.38
2023-05-11T20:03:15.021Z,93784.00
2023-05-11T20:05:43.632Z,93775.16
2023-05-11T20:08:12.051Z,93776.69
2023-05-11T20:10:40.612Z,93777.84
2023-05-11T20:13:09.064Z,93789.09
2023-05-11T20:15:37.188Z,93784.50
2023-05-11T20:18:05.571Z,93786.16
2023-05-11T20:20:34.276Z,93787.91
2023-05-11T20:23:02.918Z,93786.53
2023-05-11T20:25:31.555Z,93797.25
2023-05-11T20:27:59.918Z,93792.34
2023-05-11T20:30:28.397Z,93797.09
2023-05-11T20:35:28.406Z,93799.63
2023-05-11T20:37:56.441Z,93794.69
2023-05-11T20:40:25.814Z,93796.41
2023-05-11T20:42:53.812Z,93798.28
2023-05-11T20:45:21.939Z,93790.41
2023-05-11T20:47:50.475Z,93796.19
2023-05-11T20:50:18.910Z,93795.06
2023-05-11T20:52:47.290Z,93800.94
2023-05-11T20:55:16.333Z,93799.53
2023-05-11T20:57:44.498Z,93806.09
2023-05-11T21:00:16.480Z,93806.47
2023-05-11T21:02:46.208Z,93810.56
2023-05-11T21:05:14.589Z,93814.50
2023-05-11T21:07:42.540Z,93808.34
2023-05-11T21:10:12.696Z,93819.19
2023-05-11T21:12:40.729Z,93823.63
2023-05-11T21:15:09.396Z,93809.19
2023-05-11T21:17:37.541Z,93824.22
2023-05-11T21:20:06.472Z,93818.22
2023-05-11T21:22:35.666Z,93825.97
2023-05-11T21:25:04.509Z,93825.06
2023-05-11T21:27:33.800Z,93823.91
2023-05-11T21:30:01.666Z,93833.72
2023-05-11T21:32:29.883Z,93827.59
2023-05-11T21:34:57.817Z,93825.84
2023-05-11T21:37:25.824Z,93830.38
2023-05-11T21:39:53.648Z,93830.84
2023-05-11T21:42:22.019Z,93830.63
2023-05-11T21:44:49.887Z,93827.84
2023-05-11T21:47:18.005Z,93838.47
2023-05-11T21:49:46.707Z,93836.06
2023-05-11T21:52:14.619Z,93825.31
2023-05-11T21:54:42.563Z,93834.88
2023-05-11T21:57:10.544Z,93832.13
2023-05-11T21:59:38.513Z,93828.41
2023-05-11T22:02:07.011Z,93836.16
2023-05-11T22:04:35.201Z,93836.19
2023-05-11T22:07:03.797Z,93833.16
2023-05-11T22:09:32.207Z,93830.84
2023-05-11T22:12:00.039Z,93830.63
2023-05-11T22:14:28.029Z,93830.84
2023-05-11T22:16:55.906Z,93823.47
2023-05-11T22:19:23.899Z,93818.47
2023-05-11T22:21:51.777Z,93819.19
2023-05-11T22:24:21.392Z,93828.16
2023-05-11T22:26:49.294Z,93826.97
2023-05-11T22:29:17.298Z,93831.59
2023-05-11T22:31:46.300Z,93823.16
2023-05-11T22:34:14.793Z,93824.44
2023-05-11T22:36:42.776Z,93822.41
2023-05-11T22:39:11.650Z,93825.88
2023-05-11T22:41:39.744Z,93823.09
2023-05-11T22:44:08.998Z,93821.50
2023-05-11T22:46:37.400Z,93827.59
2023-05-11T22:49:05.349Z,93815.13
2023-05-11T22:51:33.219Z,93815.72
2023-05-11T22:54:01.304Z,93825.53
2023-05-11T22:56:30.859Z,93814.44
2023-05-11T22:59:01.401Z,93812.25
2023-05-11T23:01:29.426Z,93816.66
2023-05-11T23:03:58.367Z,93808.91
2023-05-11T23:06:29.638Z,93805.91
2023-05-11T23:08:57.697Z,93809.59
2023-05-11T23:11:25.562Z,93807.84
2023-05-11T23:13:53.711Z,93811.44
2023-05-11T23:16:21.726Z,93813.63
2023-05-11T23:18:49.811Z,93804.63
2023-05-11T23:21:18.437Z,93803.94
2023-05-11T23:23:46.543Z,93810.97
2023-05-11T23:26:14.657Z,93806.03
2023-05-11T23:28:42.560Z,93799.66
2023-05-11T23:31:10.424Z,93803.25
2023-05-11T23:33:39.526Z,93801.97
2023-05-11T23:36:08.289Z,93806.13
2023-05-11T23:38:36.201Z,93796.41
2023-05-11T23:41:06.685Z,93796.88
2023-05-11T23:43:34.836Z,93802.31
2023-05-11T23:46:02.737Z,93797.22
2023-05-11T23:48:30.961Z,93798.16
2023-05-11T23:50:58.918Z,93800.56
2023-05-11T23:53:26.959Z,93797.69
2023-05-11T23:55:54.979Z,93792.84
2023-05-11T23:58:23.308Z,93795.41
